sensor_id;sensor_type;location;lat;lon;timestamp;temperature;humidity
24374;DHT22;12498;50.880;12.096;2023-04-24T01:43:57;11.70;99.90
24374;DHT22;12498;50.880;12.096;2023-04-24T01:46:23;11.70;99.90
24374;DHT22;12498;50.880;12.096;2023-04-24T01:48:51;11.80;99.90
24374;DHT22;12498;50.880;12.096;2023-04-24T01:51:17;11.80;99.90
24374;DHT22;12498;50.880;12.096;2023-04-24T01:53:42;11.80;99.90
24374;DHT22;12498;50.880;12.096;2023-04-24T01:56:09;11.60;99.90
24374;DHT22;12498;50.880;12.096;2023-04-24T01:58:35;11.70;99.90
24374;DHT22;12498;50.880;12.096;2023-04-24T02:01:01;11.60;99.90
24374;DHT22;12498;50.880;12.096;2023-04-24T02:03:27;11.80;99.90
24374;DHT22;12498;50.880;12.096;2023-04-24T02:05:52;11.60;99.90
24374;DHT22;12498;50.880;12.096;2023-04-24T02:08:18;11.70;99.90
24374;DHT22;12498;50.880;12.096;2023-04-24T02:10:44;11.60;99.90
24374;DHT22;12498;50.880;12.096;2023-04-24T02:13:09;11.60;99.90
24374;DHT22;12498;50.880;12.096;2023-04-24T02:15:35;11.60;99.90
24374;DHT22;12498;50.880;12.096;2023-04-24T02:18:01;12.00;99.90
24374;DHT22;12498;50.880;12.096;2023-04-24T02:20:27;11.50;99.90
24374;DHT22;12498;50.880;12.096;2023-04-24T02:22:52;11.50;99.90
24374;DHT22;12498;50.880;12.096;2023-04-24T02:25:18;11.50;99.90
24374;DHT22;12498;50.880;12.096;2023-04-24T02:27:44;11.60;99.90
24374;DHT22;12498;50.880;12.096;2023-04-24T02:30:10;11.60;99.90
24374;DHT22;12498;50.880;12.096;2023-04-24T02:32:35;11.60;99.90
24374;DHT22;12498;50.880;12.096;2023-04-24T02:35:01;11.50;99.90
24374;DHT22;12498;50.880;12.096;2023-04-24T02:37:27;11.50;99.90
24374;DHT22;12498;50.880;12.096;2023-04-24T02:39:52;11.60;99.90
24374;DHT22;12498;50.880;12.096;2023-04-24T02:42:18;11.50;99.90
24374;DHT22;12498;50.880;12.096;2023-04-24T02:44:43;11.50;99.90
24374;DHT22;12498;50.880;12.096;2023-04-24T02:47:09;11.50;99.90
24374;DHT22;12498;50.880;12.096;2023-04-24T02:49:35;11.50;99.90
24374;DHT22;12498;50.880;12.096;2023-04-24T02:52:00;11.50;99.90
24374;DHT22;12498;50.880;12.096;2023-04-24T02:54:26;11.50;99.90
24374;DHT22;12498;50.880;12.096;2023-04-24T02:56:51;11.80;99.90
24374;DHT22;12498;50.880;12.096;2023-04-24T02:59:17;11.40;99.90
24374;DHT22;12498;50.880;12.096;2023-04-24T03:01:42;11.70;99.90
24374;DHT22;12498;50.880;12.096;2023-04-24T03:04:08;11.60;99.90
24374;DHT22;12498;50.880;12.096;2023-04-24T03:06:33;11.50;99.90
24374;DHT22;12498;50.880;12.096;2023-04-24T03:09:01;11.60;99.90
24374;DHT22;12498;50.880;12.096;2023-04-24T03:11:26;11.50;99.90
24374;DHT22;12498;50.880;12.096;2023-04-24T03:13:52;11.40;99.90
24374;DHT22;12498;50.880;12.096;2023-04-24T03:16:17;11.50;99.90
24374;DHT22;12498;50.880;12.096;2023-04-24T03:18:43;11.30;99.90
24374;DHT22;12498;50.880;12.096;2023-04-24T03:21:08;11.40;99.90
24374;DHT22;12498;50.880;12.096;2023-04-24T03:23:34;11.30;99.90
24374;DHT22;12498;50.880;12.096;2023-04-24T03:26:00;11.30;99.90
24374;DHT22;12498;50.880;12.096;2023-04-24T03:28:25;11.40;99.90
24374;DHT22;12498;50.880;12.096;2023-04-24T03:30:51;11.30;99.90
24374;DHT22;12498;50.880;12.096;2023-04-24T03:33:17;11.30;99.90
24374;DHT22;12498;50.880;12.096;2023-04-24T03:35:43;11.20;99.90
24374;DHT22;12498;50.880;12.096;2023-04-24T03:38:08;11.30;99.90
24374;DHT22;12498;50.880;12.096;2023-04-24T03:40:34;11.30;99.90
24374;DHT22;12498;50.880;12.096;2023-04-24T03:43:00;11.30;99.90
24374;DHT22;12498;50.880;12.096;2023-04-24T03:45:25;11.40;99.90
24374;DHT22;12498;50.880;12.096;2023-04-24T03:47:51;11.40;99.90
24374;DHT22;12498;50.880;12.096;2023-04-24T03:50:16;11.20;99.90
24374;DHT22;12498;50.880;12.096;2023-04-24T03:52:42;11.20;99.90
24374;DHT22;12498;50.880;12.096;2023-04-24T03:55:08;11.20;99.90
24374;DHT22;12498;50.880;12.096;2023-04-24T03:57:33;11.30;99.90
24374;DHT22;12498;50.880;12.096;2023-04-24T03:59:59;11.20;99.90
24374;DHT22;12498;50.880;12.096;2023-04-24T04:02:25;11.20;99.90
24374;DHT22;12498;50.880;12.096;2023-04-24T04:04:50;11.10;99.90
24374;DHT22;12498;50.880;12.096;2023-04-24T04:07:16;11.20;99.90
24374;DHT22;12498;50.880;12.096;2023-04-24T04:09:42;11.20;99.90
24374;DHT22;12498;50.880;12.096;2023-04-24T04:12:07;11.20;99.90
24374;DHT22;12498;50.880;12.096;2023-04-24T04:14:33;11.30;99.90
24374;DHT22;12498;50.880;12.096;2023-04-24T04:16:58;11.30;99.90
24374;DHT22;12498;50.880;12.096;2023-04-24T04:19:24;11.30;99.90
24374;DHT22;12498;50.880;12.096;2023-04-24T04:21:50;11.30;99.90
24374;DHT22;12498;50.880;12.096;2023-04-24T04:26:48;11.30;99.90
24374;DHT22;12498;50.880;12.096;2023-04-24T04:56:10;12.00;99.90
24374;DHT22;12498;50.880;12.096;2023-04-24T05:01:01;12.30;99.90
24374;DHT22;12498;50.880;12.096;2023-04-24T05:03:27;12.30;99.90
24374;DHT22;12498;50.880;12.096;2023-04-24T05:08:19;12.10;99.90
24374;DHT22;12498;50.880;12.096;2023-04-24T05:10:45;12.00;99.90
24374;DHT22;12498;50.880;12.096;2023-04-24T05:18:02;11.90;99.90
24374;DHT22;12498;50.880;12.096;2023-04-24T05:35:04;11.70;99.90
24374;DHT22;12498;50.880;12.096;2023-04-24T05:42:22;11.90;99.90
24374;DHT22;12498;50.880;12.096;2023-04-24T06:58:10;12.40;1.00
24374;DHT22;12498;50.880;12.096;2023-04-24T07:37:14;13.50;1.00
24374;DHT22;12498;50.880;12.096;2023-04-24T13:38:06;21.10;1.00
24374;DHT22;12498;50.880;12.096;2023-04-24T13:40:32;20.50;1.00
24374;DHT22;12498;50.880;12.096;2023-04-24T13:42:58;20.10;1.00
24374;DHT22;12498;50.880;12.096;2023-04-24T13:45:23;22.00;1.00
24374;DHT22;12498;50.880;12.096;2023-04-24T13:47:49;23.10;17.30
24374;DHT22;12498;50.880;12.096;2023-04-24T13:50:15;22.80;1.00
24374;DHT22;12498;50.880;12.096;2023-04-24T13:55:07;21.20;1.00
24374;DHT22;12498;50.880;12.096;2023-04-24T13:57:33;19.70;1.00
24374;DHT22;12498;50.880;12.096;2023-04-24T13:59:59;18.90;1.00
24374;DHT22;12498;50.880;12.096;2023-04-24T14:02:29;18.00;1.00
24374;DHT22;12498;50.880;12.096;2023-04-24T14:07:21;17.90;1.00
24374;DHT22;12498;50.880;12.096;2023-04-24T14:09:47;17.90;1.00
24374;DHT22;12498;50.880;12.096;2023-04-24T14:12:12;18.10;1.00
24374;DHT22;12498;50.880;12.096;2023-04-24T14:14:39;17.20;1.00
24374;DHT22;12498;50.880;12.096;2023-04-24T14:17:05;16.70;1.00
24374;DHT22;12498;50.880;12.096;2023-04-24T14:19:31;16.00;1.00
24374;DHT22;12498;50.880;12.096;2023-04-24T14:21:56;16.00;1.00
24374;DHT22;12498;50.880;12.096;2023-04-24T14:24:23;15.60;1.00
24374;DHT22;12498;50.880;12.096;2023-04-24T14:29:15;14.80;1.00
24374;DHT22;12498;50.880;12.096;2023-04-24T14:31:42;14.80;1.00
24374;DHT22;12498;50.880;12.096;2023-04-24T14:34:08;14.60;1.00
24374;DHT22;12498;50.880;12.096;2023-04-24T14:36:34;14.70;1.00
24374;DHT22;12498;50.880;12.096;2023-04-24T14:39:00;15.30;1.00
24374;DHT22;12498;50.880;12.096;2023-04-24T14:41:28;15.70;1.00
24374;DHT22;12498;50.880;12.096;2023-04-24T14:46:20;15.40;1.00
24374;DHT22;12498;50.880;12.096;2023-04-24T14:48:45;15.30;1.00
24374;DHT22;12498;50.880;12.096;2023-04-24T14:51:11;15.30;1.00
24374;DHT22;12498;50.880;12.096;2023-04-24T14:53:37;14.80;1.00
24374;DHT22;12498;50.880;12.096;2023-04-24T14:56:03;14.80;1.00
24374;DHT22;12498;50.880;12.096;2023-04-24T14:58:28;14.90;1.00
24374;DHT22;12498;50.880;12.096;2023-04-24T15:00:54;14.90;1.00
24374;DHT22;12498;50.880;12.096;2023-04-24T15:20:23;16.00;99.90
24374;DHT22;12498;50.880;12.096;2023-04-24T15:22:48;15.60;99.90
24374;DHT22;12498;50.880;12.096;2023-04-24T15:47:13;14.80;72.40
24374;DHT22;12498;50.880;12.096;2023-04-24T15:49:39;14.70;14.10
24374;DHT22;12498;50.880;12.096;2023-04-24T15:52:05;14.60;62.40
24374;DHT22;12498;50.880;12.096;2023-04-24T15:54:31;14.50;89.40
24374;DHT22;12498;50.880;12.096;2023-04-24T15:56:56;14.30;73.20
24374;DHT22;12498;50.880;12.096;2023-04-24T15:59:22;14.20;94.20
24374;DHT22;12498;50.880;12.096;2023-04-24T16:01:48;14.10;99.90
24374;DHT22;12498;50.880;12.096;2023-04-24T16:04:14;14.10;99.90
24374;DHT22;12498;50.880;12.096;2023-04-24T16:06:40;14.10;99.90
24374;DHT22;12498;50.880;12.096;2023-04-24T16:09:06;14.10;99.90
24374;DHT22;12498;50.880;12.096;2023-04-24T16:11:33;14.00;99.90
24374;DHT22;12498;50.880;12.096;2023-04-24T16:14:01;13.80;99.90
24374;DHT22;12498;50.880;12.096;2023-04-24T16:16:26;13.60;99.90
24374;DHT22;12498;50.880;12.096;2023-04-24T16:18:52;13.60;99.90
24374;DHT22;12498;50.880;12.096;2023-04-24T16:21:19;13.60;99.90
24374;DHT22;12498;50.880;12.096;2023-04-24T16:23:45;13.50;99.90
24374;DHT22;12498;50.880;12.096;2023-04-24T16:26:11;13.50;99.90
24374;DHT22;12498;50.880;12.096;2023-04-24T16:28:36;13.30;1.00
24374;DHT22;12498;50.880;12.096;2023-04-24T16:31:02;13.40;1.00
24374;DHT22;12498;50.880;12.096;2023-04-24T16:33:28;13.30;1.00
24374;DHT22;12498;50.880;12.096;2023-04-24T16:35:56;13.30;1.00
24374;DHT22;12498;50.880;12.096;2023-04-24T16:38:22;13.20;73.60
24374;DHT22;12498;50.880;12.096;2023-04-24T16:40:49;13.20;99.90
24374;DHT22;12498;50.880;12.096;2023-04-24T16:43:15;13.10;99.90
24374;DHT22;12498;50.880;12.096;2023-04-24T16:45:41;13.00;99.90
24374;DHT22;12498;50.880;12.096;2023-04-24T16:48:06;13.00;1.00
24374;DHT22;12498;50.880;12.096;2023-04-24T16:50:33;13.10;1.00
24374;DHT22;12498;50.880;12.096;2023-04-24T16:52:59;13.00;99.90
24374;DHT22;12498;50.880;12.096;2023-04-24T16:55:25;13.00;99.90
24374;DHT22;12498;50.880;12.096;2023-04-24T16:57:50;13.00;1.00
24374;DHT22;12498;50.880;12.096;2023-04-24T17:00:16;13.00;1.00
24374;DHT22;12498;50.880;12.096;2023-04-24T17:02:42;12.80;99.90
24374;DHT22;12498;50.880;12.096;2023-04-24T17:05:13;12.80;99.90
24374;DHT22;12498;50.880;12.096;2023-04-24T17:07:38;12.70;99.90
24374;DHT22;12498;50.880;12.096;2023-04-24T17:10:05;12.70;1.00
24374;DHT22;12498;50.880;12.096;2023-04-24T17:12:32;12.70;99.90
24374;DHT22;12498;50.880;12.096;2023-04-24T17:14:58;12.60;99.90
24374;DHT22;12498;50.880;12.096;2023-04-24T17:17:23;12.60;99.90
24374;DHT22;12498;50.880;12.096;2023-04-24T17:19:49;12.60;99.90
24374;DHT22;12498;50.880;12.096;2023-04-24T17:22:16;12.70;1.00
24374;DHT22;12498;50.880;12.096;2023-04-24T17:24:42;12.80;1.00
24374;DHT22;12498;50.880;12.096;2023-04-24T17:27:07;12.80;1.00
24374;DHT22;12498;50.880;12.096;2023-04-24T17:29:33;13.00;1.00
24374;DHT22;12498;50.880;12.096;2023-04-24T17:31:59;12.80;1.00
24374;DHT22;12498;50.880;12.096;2023-04-24T17:34:24;13.30;1.00
24374;DHT22;12498;50.880;12.096;2023-04-24T17:36:50;12.80;1.00
24374;DHT22;12498;50.880;12.096;2023-04-24T17:39:16;12.80;23.20
24374;DHT22;12498;50.880;12.096;2023-04-24T17:44:07;12.60;1.00
24374;DHT22;12498;50.880;12.096;2023-04-24T17:46:33;12.60;99.90
24374;DHT22;12498;50.880;12.096;2023-04-24T17:48:59;11.80;90.30
24374;DHT22;12498;50.880;12.096;2023-04-24T17:51:25;12.50;99.90
24374;DHT22;12498;50.880;12.096;2023-04-24T17:53:52;12.40;99.90
24374;DHT22;12498;50.880;12.096;2023-04-24T17:56:18;12.40;99.90
24374;DHT22;12498;50.880;12.096;2023-04-24T17:58:43;12.30;99.90
24374;DHT22;12498;50.880;12.096;2023-04-24T18:01:09;12.30;1.00
24374;DHT22;12498;50.880;12.096;2023-04-24T18:03:35;12.40;1.00
24374;DHT22;12498;50.880;12.096;2023-04-24T18:06:01;12.50;1.00
24374;DHT22;12498;50.880;12.096;2023-04-24T18:08:26;12.50;99.90
24374;DHT22;12498;50.880;12.096;2023-04-24T18:10:52;12.40;99.90
24374;DHT22;12498;50.880;12.096;2023-04-24T18:13:18;12.30;1.00
24374;DHT22;12498;50.880;12.096;2023-04-24T18:15:43;12.30;1.00
24374;DHT22;12498;50.880;12.096;2023-04-24T18:18:10;12.50;1.00
24374;DHT22;12498;50.880;12.096;2023-04-24T18:20:36;12.10;1.00
24374;DHT22;12498;50.880;12.096;2023-04-24T18:23:01;12.10;1.00
24374;DHT22;12498;50.880;12.096;2023-04-24T18:25:28;12.10;99.90
24374;DHT22;12498;50.880;12.096;2023-04-24T18:27:54;12.20;99.90
24374;DHT22;12498;50.880;12.096;2023-04-24T18:30:23;12.00;99.90
24374;DHT22;12498;50.880;12.096;2023-04-24T18:32:49;11.80;99.90
24374;DHT22;12498;50.880;12.096;2023-04-24T18:35:16;11.90;99.90
24374;DHT22;12498;50.880;12.096;2023-04-24T18:37:41;11.80;1.00
24374;DHT22;12498;50.880;12.096;2023-04-24T18:40:09;11.80;1.00
24374;DHT22;12498;50.880;12.096;2023-04-24T18:42:35;11.60;1.00
24374;DHT22;12498;50.880;12.096;2023-04-24T18:45:01;11.60;1.00
24374;DHT22;12498;50.880;12.096;2023-04-24T18:47:29;12.00;31.10
24374;DHT22;12498;50.880;12.096;2023-04-24T18:49:55;11.70;99.90
24374;DHT22;12498;50.880;12.096;2023-04-24T18:52:22;11.60;99.90
24374;DHT22;12498;50.880;12.096;2023-04-24T18:54:50;11.60;99.90
24374;DHT22;12498;50.880;12.096;2023-04-24T18:57:16;11.50;99.90
24374;DHT22;12498;50.880;12.096;2023-04-24T18:59:42;11.50;99.90
24374;DHT22;12498;50.880;12.096;2023-04-24T19:02:07;11.60;99.90
24374;DHT22;12498;50.880;12.096;2023-04-24T19:04:33;11.40;99.90
24374;DHT22;12498;50.880;12.096;2023-04-24T19:06:59;11.50;99.90
24374;DHT22;12498;50.880;12.096;2023-04-24T19:09:25;11.30;99.90
24374;DHT22;12498;50.880;12.096;2023-04-24T19:11:51;11.80;1.00
24374;DHT22;12498;50.880;12.096;2023-04-24T19:14:16;11.30;1.00
24374;DHT22;12498;50.880;12.096;2023-04-24T19:16:44;11.50;1.00
24374;DHT22;12498;50.880;12.096;2023-04-24T19:19:09;11.20;1.00
24374;DHT22;12498;50.880;12.096;2023-04-24T19:24:02;11.30;55.90
24374;DHT22;12498;50.880;12.096;2023-04-24T19:26:28;11.20;24.00
24374;DHT22;12498;50.880;12.096;2023-04-24T19:28:56;11.10;98.30
24374;DHT22;12498;50.880;12.096;2023-04-24T19:31:23;11.20;99.90
24374;DHT22;12498;50.880;12.096;2023-04-24T19:33:49;11.10;99.90
24374;DHT22;12498;50.880;12.096;2023-04-24T19:36:15;10.90;99.90
24374;DHT22;12498;50.880;12.096;2023-04-24T19:38:44;10.70;99.90
24374;DHT22;12498;50.880;12.096;2023-04-24T19:41:10;11.20;99.90
24374;DHT22;12498;50.880;12.096;2023-04-24T19:43:37;10.90;1.00
24374;DHT22;12498;50.880;12.096;2023-04-24T19:46:02;11.10;1.00
24374;DHT22;12498;50.880;12.096;2023-04-24T19:48:28;11.00;1.00
24374;DHT22;12498;50.880;12.096;2023-04-24T19:50:57;10.80;1.00
24374;DHT22;12498;50.880;12.096;2023-04-24T19:53:23;10.70;1.00
24374;DHT22;12498;50.880;12.096;2023-04-24T19:55:49;10.70;41.50
24374;DHT22;12498;50.880;12.096;2023-04-24T19:58:15;10.60;99.90
24374;DHT22;12498;50.880;12.096;2023-04-24T20:00:40;10.60;67.20
24374;DHT22;12498;50.880;12.096;2023-04-24T20:03:06;10.40;1.00
24374;DHT22;12498;50.880;12.096;2023-04-24T20:05:32;10.60;9.80
24374;DHT22;12498;50.880;12.096;2023-04-24T20:07:58;10.60;36.80
24374;DHT22;12498;50.880;12.096;2023-04-24T20:10:23;10.90;71.70
24374;DHT22;12498;50.880;12.096;2023-04-24T20:12:49;10.60;90.50
24374;DHT22;12498;50.880;12.096;2023-04-24T20:15:15;10.60;99.90
24374;DHT22;12498;50.880;12.096;2023-04-24T20:17:41;10.60;99.90
24374;DHT22;12498;50.880;12.096;2023-04-24T20:20:07;10.70;99.90
24374;DHT22;12498;50.880;12.096;2023-04-24T20:22:34;10.60;99.90
24374;DHT22;12498;50.880;12.096;2023-04-24T20:25:07;10.60;99.90
24374;DHT22;12498;50.880;12.096;2023-04-24T20:27:33;10.50;99.90
24374;DHT22;12498;50.880;12.096;2023-04-24T20:29:58;10.70;99.90
24374;DHT22;12498;50.880;12.096;2023-04-24T20:32:24;10.50;99.90
24374;DHT22;12498;50.880;12.096;2023-04-24T20:34:50;10.40;99.90
24374;DHT22;12498;50.880;12.096;2023-04-24T20:37:16;10.50;99.90
24374;DHT22;12498;50.880;12.096;2023-04-24T20:39:41;10.60;99.90
24374;DHT22;12498;50.880;12.096;2023-04-24T20:42:09;10.40;1.00
24374;DHT22;12498;50.880;12.096;2023-04-24T20:44:36;10.30;1.00
24374;DHT22;12498;50.880;12.096;2023-04-24T20:47:01;10.30;98.10
24374;DHT22;12498;50.880;12.096;2023-04-24T20:49:27;10.30;99.90
24374;DHT22;12498;50.880;12.096;2023-04-24T20:51:52;10.30;99.90
24374;DHT22;12498;50.880;12.096;2023-04-24T20:54:18;10.50;99.90
24374;DHT22;12498;50.880;12.096;2023-04-24T20:56:44;10.50;99.90
24374;DHT22;12498;50.880;12.096;2023-04-24T20:59:10;10.20;99.90
24374;DHT22;12498;50.880;12.096;2023-04-24T21:01:36;10.10;99.90
24374;DHT22;12498;50.880;12.096;2023-04-24T21:04:02;10.10;99.90
24374;DHT22;12498;50.880;12.096;2023-04-24T21:06:27;10.30;99.90
24374;DHT22;12498;50.880;12.096;2023-04-24T21:08:54;9.90;99.90
24374;DHT22;12498;50.880;12.096;2023-04-24T21:11:19;9.90;99.90
24374;DHT22;12498;50.880;12.096;2023-04-24T21:13:45;10.10;99.90
24374;DHT22;12498;50.880;12.096;2023-04-24T21:16:10;9.80;99.90
24374;DHT22;12498;50.880;12.096;2023-04-24T21:18:36;9.80;99.90
24374;DHT22;12498;50.880;12.096;2023-04-24T21:21:08;9.90;1.00
24374;DHT22;12498;50.880;12.096;2023-04-24T21:23:34;9.70;1.00
24374;DHT22;12498;50.880;12.096;2023-04-24T21:26:01;9.70;1.00
24374;DHT22;12498;50.880;12.096;2023-04-24T21:28:27;9.80;1.00
24374;DHT22;12498;50.880;12.096;2023-04-24T21:30:53;9.60;1.00
24374;DHT22;12498;50.880;12.096;2023-04-24T21:43:03;9.30;1.00
24374;DHT22;12498;50.880;12.096;2023-04-24T21:45:29;9.30;1.00
24374;DHT22;12498;50.880;12.096;2023-04-24T21:47:54;9.20;1.00
24374;DHT22;12498;50.880;12.096;2023-04-24T21:50:20;9.30;1.00
24374;DHT22;12498;50.880;12.096;2023-04-24T21:52:46;9.70;1.00
24374;DHT22;12498;50.880;12.096;2023-04-24T21:55:11;9.20;1.00
24374;DHT22;12498;50.880;12.096;2023-04-24T21:57:37;9.50;1.00
24374;DHT22;12498;50.880;12.096;2023-04-24T22:00:03;9.10;1.00
24374;DHT22;12498;50.880;12.096;2023-04-24T22:02:31;9.10;1.00
24374;DHT22;12498;50.880;12.096;2023-04-24T22:04:56;9.00;1.00
24374;DHT22;12498;50.880;12.096;2023-04-24T22:07:22;9.20;1.00
24374;DHT22;12498;50.880;12.096;2023-04-24T22:09:48;9.00;1.00
24374;DHT22;12498;50.880;12.096;2023-04-24T22:12:14;9.00;1.00
24374;DHT22;12498;50.880;12.096;2023-04-24T22:14:39;9.00;1.00
24374;DHT22;12498;50.880;12.096;2023-04-24T22:17:05;8.90;1.00
24374;DHT22;12498;50.880;12.096;2023-04-24T22:19:31;9.30;1.00
24374;DHT22;12498;50.880;12.096;2023-04-24T22:21:57;9.20;1.00
24374;DHT22;12498;50.880;12.096;2023-04-24T22:24:22;9.00;1.00
24374;DHT22;12498;50.880;12.096;2023-04-24T22:26:48;9.30;1.00
24374;DHT22;12498;50.880;12.096;2023-04-24T22:29:14;9.00;1.00
24374;DHT22;12498;50.880;12.096;2023-04-24T22:31:40;9.00;1.00
24374;DHT22;12498;50.880;12.096;2023-04-24T22:34:06;8.80;1.00
24374;DHT22;12498;50.880;12.096;2023-04-24T22:36:32;8.80;1.00
24374;DHT22;12498;50.880;12.096;2023-04-24T22:38:58;8.70;1.00
24374;DHT22;12498;50.880;12.096;2023-04-24T22:41:23;8.90;1.00
24374;DHT22;12498;50.880;12.096;2023-04-24T22:43:49;8.70;1.00
24374;DHT22;12498;50.880;12.096;2023-04-24T22:46:15;8.80;1.00
24374;DHT22;12498;50.880;12.096;2023-04-24T22:48:41;8.60;1.00
24374;DHT22;12498;50.880;12.096;2023-04-24T22:51:06;8.60;1.00
24374;DHT22;12498;50.880;12.096;2023-04-24T22:53:32;8.60;1.00
24374;DHT22;12498;50.880;12.096;2023-04-24T22:55:58;8.80;1.00
24374;DHT22;12498;50.880;12.096;2023-04-24T22:58:24;8.80;1.00
24374;DHT22;12498;50.880;12.096;2023-04-24T23:00:49;8.50;1.00
24374;DHT22;12498;50.880;12.096;2023-04-24T23:03:15;8.50;1.00
24374;DHT22;12498;50.880;12.096;2023-04-24T23:05:41;8.50;1.00
24374;DHT22;12498;50.880;12.096;2023-04-24T23:08:06;8.50;1.00
24374;DHT22;12498;50.880;12.096;2023-04-24T23:10:32;8.40;1.00
24374;DHT22;12498;50.880;12.096;2023-04-24T23:12:57;8.50;1.00
24374;DHT22;12498;50.880;12.096;2023-04-24T23:15:23;8.70;1.00
24374;DHT22;12498;50.880;12.096;2023-04-24T23:17:49;8.50;1.00
24374;DHT22;12498;50.880;12.096;2023-04-24T23:20:14;8.40;1.00
24374;DHT22;12498;50.880;12.096;2023-04-24T23:22:40;8.30;1.00
24374;DHT22;12498;50.880;12.096;2023-04-24T23:25:06;8.30;1.00
24374;DHT22;12498;50.880;12.096;2023-04-24T23:27:35;8.30;1.00
24374;DHT22;12498;50.880;12.096;2023-04-24T23:30:02;8.30;1.00
24374;DHT22;12498;50.880;12.096;2023-04-24T23:32:28;8.30;1.00
24374;DHT22;12498;50.880;12.096;2023-04-24T23:34:53;8.50;1.00
24374;DHT22;12498;50.880;12.096;2023-04-24T23:37:19;8.20;1.00
24374;DHT22;12498;50.880;12.096;2023-04-24T23:39:45;8.30;1.00
24374;DHT22;12498;50.880;12.096;2023-04-24T23:42:10;8.20;1.00
24374;DHT22;12498;50.880;12.096;2023-04-24T23:44:36;8.20;1.00
24374;DHT22;12498;50.880;12.096;2023-04-24T23:47:02;8.30;1.00
24374;DHT22;12498;50.880;12.096;2023-04-24T23:49:27;8.10;1.00
24374;DHT22;12498;50.880;12.096;2023-04-24T23:51:53;8.00;1.00
24374;DHT22;12498;50.880;12.096;2023-04-24T23:54:19;8.30;1.00
24374;DHT22;12498;50.880;12.096;2023-04-24T23:56:45;8.20;1.00
24374;DHT22;12498;50.880;12.096;2023-04-24T23:59:12;8.10;1.00
